createdAt,value
2017-09-01T00:01:16.604Z,9.67
2017-09-01T00:03:42.559Z,12.10
2017-09-01T00:06:08.516Z,10.70
2017-09-01T00:08:34.489Z,10.83
2017-09-01T00:11:01.057Z,10.20
2017-09-01T00:13:26.976Z,10.90
2017-09-01T00:15:53.611Z,10.10
2017-09-01T00:18:19.533Z,10.00
2017-09-01T00:20:45.493Z,10.33
2017-09-01T00:23:11.462Z,10.87
2017-09-01T00:25:37.425Z,10.50
2017-09-01T00:28:03.427Z,11.60
2017-09-01T00:30:29.422Z,11.53
2017-09-01T00:32:55.364Z,10.37
2017-09-01T00:35:21.992Z,11.33
2017-09-01T00:37:47.924Z,11.20
2017-09-01T00:40:13.871Z,12.70
2017-09-01T00:42:39.834Z,11.50
2017-09-01T00:45:05.739Z,11.70
2017-09-01T00:47:31.678Z,11.43
2017-09-01T00:49:57.620Z,11.57
2017-09-01T00:52:23.541Z,11.93
2017-09-01T00:54:49.467Z,13.13
2017-09-01T00:57:15.494Z,13.70
2017-09-01T00:59:41.448Z,13.90
2017-09-01T01:02:07.408Z,12.73
2017-09-01T01:04:33.397Z,12.93
2017-09-01T01:07:01.249Z,12.60
2017-09-01T01:09:27.182Z,13.87
2017-09-01T01:11:53.128Z,12.27
2017-09-01T01:14:19.195Z,12.90
2017-09-01T01:16:45.123Z,12.27
2017-09-01T01:19:11.064Z,12.90
2017-09-01T01:21:36.971Z,15.23
2017-09-01T01:24:03.732Z,15.00
2017-09-01T01:26:30.747Z,11.13
2017-09-01T01:28:56.678Z,13.97
2017-09-01T01:31:22.657Z,13.23
2017-09-01T01:33:50.409Z,13.60
2017-09-01T01:36:16.375Z,14.37
2017-09-01T01:38:42.325Z,13.60
2017-09-01T01:41:08.321Z,14.60
2017-09-01T01:43:34.343Z,14.03
2017-09-01T01:46:00.372Z,13.83
2017-09-01T01:48:26.360Z,14.13
2017-09-01T01:50:52.347Z,15.23
2017-09-01T01:53:18.518Z,14.47
2017-09-01T01:55:44.583Z,13.50
2017-09-01T01:58:10.508Z,14.10
2017-09-01T02:00:36.507Z,14.40
2017-09-01T02:03:02.528Z,14.30
2017-09-01T02:05:29.258Z,12.30
2017-09-01T02:07:56.567Z,13.57
2017-09-01T02:10:22.563Z,14.93
2017-09-01T02:12:48.971Z,15.50
2017-09-01T02:15:14.924Z,15.43
2017-09-01T02:17:40.919Z,15.20
2017-09-01T02:20:06.868Z,15.57
2017-09-01T02:22:33.079Z,14.83
2017-09-01T02:24:58.999Z,15.30
2017-09-01T02:27:25.207Z,16.37
2017-09-01T02:29:51.284Z,16.20
2017-09-01T02:32:17.237Z,16.40
2017-09-01T02:34:43.167Z,16.53
2017-09-01T02:39:47.071Z,16.40
2017-09-01T02:42:13.348Z,19.83
2017-09-01T02:44:39.343Z,17.40
2017-09-01T02:47:05.271Z,16.53
2017-09-01T02:49:31.946Z,16.10
2017-09-01T02:51:57.933Z,17.67
2017-09-01T02:54:23.923Z,18.83
2017-09-01T02:56:49.939Z,18.70
2017-09-01T02:59:15.859Z,16.53
2017-09-01T03:01:41.827Z,17.97
2017-09-01T03:04:07.809Z,18.13
2017-09-01T03:06:33.735Z,16.67
2017-09-01T03:09:00.463Z,17.37
2017-09-01T03:11:28.227Z,19.40
2017-09-01T03:13:54.151Z,17.63
2017-09-01T03:16:20.048Z,21.63
2017-09-01T03:18:46.003Z,21.53
2017-09-01T03:21:11.935Z,21.27
2017-09-01T03:23:37.887Z,22.30
2017-09-01T03:26:03.880Z,20.30
2017-09-01T03:28:29.831Z,18.87
2017-09-01T03:30:56.334Z,17.60
2017-09-01T03:33:22.351Z,19.83
2017-09-01T03:35:48.284Z,21.33
2017-09-01T03:38:14.236Z,23.40
2017-09-01T03:40:40.210Z,23.47
2017-09-01T03:43:06.128Z,20.53
2017-09-01T03:45:32.719Z,18.80
2017-09-01T03:47:58.647Z,19.90
2017-09-01T03:50:24.605Z,23.73
2017-09-01T03:52:52.270Z,23.03
2017-09-01T03:55:18.267Z,19.20
2017-09-01T03:57:44.852Z,20.67
2017-09-01T04:00:10.831Z,20.53
2017-09-01T04:02:36.824Z,20.07
2017-09-01T04:05:02.795Z,22.43
2017-09-01T04:07:28.759Z,21.57
2017-09-01T04:09:54.731Z,21.53
2017-09-01T04:12:20.705Z,22.67
2017-09-01T04:14:46.684Z,22.80
2017-09-01T04:17:12.627Z,26.00
2017-09-01T04:19:38.573Z,22.33
2017-09-01T04:22:04.551Z,31.97
2017-09-01T04:24:30.504Z,21.40
2017-09-01T04:26:56.443Z,20.87
2017-09-01T04:29:22.412Z,27.67
2017-09-01T04:31:48.579Z,22.80
2017-09-01T04:34:14.514Z,21.60
2017-09-01T04:36:40.541Z,27.27
2017-09-01T04:39:07.175Z,22.13
2017-09-01T04:41:33.996Z,23.33
2017-09-01T04:43:59.959Z,24.43
2017-09-01T04:46:25.921Z,29.67
2017-09-01T04:48:52.104Z,22.70
2017-09-01T04:51:18.044Z,24.83
2017-09-01T04:53:44.011Z,22.83
2017-09-01T04:56:09.987Z,23.97
2017-09-01T04:58:36.566Z,22.90
2017-09-01T05:01:02.542Z,23.30
2017-09-01T05:03:28.470Z,26.60
2017-09-01T05:05:54.551Z,23.30
2017-09-01T05:08:20.739Z,21.67
2017-09-01T05:10:47.479Z,26.00
2017-09-01T05:13:14.768Z,22.93
2017-09-01T05:15:40.896Z,24.37
2017-09-01T05:18:07.657Z,29.53
2017-09-01T05:20:34.192Z,24.70
2017-09-01T05:23:00.120Z,25.20
2017-09-01T05:25:26.047Z,23.57
2017-09-01T05:27:51.999Z,28.80
2017-09-01T05:30:21.580Z,25.67
2017-09-01T05:32:49.192Z,27.67
2017-09-01T05:35:15.130Z,23.93
2017-09-01T05:37:41.168Z,25.67
2017-09-01T05:40:07.096Z,25.33
2017-09-01T05:42:33.044Z,23.67
2017-09-01T05:44:59.581Z,25.60
2017-09-01T05:47:25.565Z,24.00
2017-09-01T05:49:51.523Z,26.23
2017-09-01T05:52:17.543Z,23.23
2017-09-01T05:54:43.555Z,26.63
2017-09-01T05:57:09.547Z,24.03
2017-09-01T05:59:35.500Z,21.87
2017-09-01T06:02:01.504Z,25.70
2017-09-01T06:04:27.536Z,24.73
2017-09-01T06:06:53.492Z,24.20
2017-09-01T06:09:20.248Z,21.77
2017-09-01T06:11:47.822Z,21.83
2017-09-01T06:14:13.899Z,22.13
2017-09-01T06:16:40.646Z,22.63
2017-09-01T06:19:07.704Z,22.67
2017-09-01T06:21:33.829Z,24.70
2017-09-01T06:23:59.841Z,24.37
2017-09-01T06:26:25.781Z,20.13
2017-09-01T06:28:52.301Z,21.50
2017-09-01T06:31:18.495Z,19.50
2017-09-01T06:33:44.516Z,22.20
2017-09-01T06:36:10.485Z,22.53
2017-09-01T06:38:38.317Z,19.83
2017-09-01T06:41:04.334Z,20.50
2017-09-01T06:43:30.285Z,23.10
2017-09-01T06:45:56.277Z,21.63
2017-09-01T06:48:23.330Z,19.97
2017-09-01T06:50:49.379Z,20.00
2017-09-01T06:53:15.395Z,21.70
2017-09-01T06:55:41.411Z,21.63
2017-09-01T06:58:07.389Z,18.23
2017-09-01T07:00:33.351Z,23.30
2017-09-01T07:02:59.279Z,20.80
2017-09-01T07:05:25.250Z,21.20
2017-09-01T07:07:51.222Z,18.40
2017-09-01T07:10:17.958Z,21.03
2017-09-01T07:12:45.316Z,18.57
2017-09-01T07:15:13.859Z,21.57
2017-09-01T07:17:39.917Z,20.90
2017-09-01T07:20:06.719Z,18.87
2017-09-01T07:22:35.676Z,19.97
2017-09-01T07:25:02.651Z,21.80
2017-09-01T07:27:28.632Z,19.40
2017-09-01T07:29:55.286Z,17.83
2017-09-01T07:32:21.262Z,21.67
2017-09-01T07:34:48.265Z,21.40
2017-09-01T07:37:14.284Z,21.40
2017-09-01T07:39:42.528Z,17.67
2017-09-01T07:42:09.184Z,19.50
2017-09-01T07:44:35.223Z,17.97
2017-09-01T07:47:03.098Z,17.80
2017-09-01T07:49:29.986Z,20.93
2017-09-01T07:51:56.931Z,17.50
2017-09-01T07:54:22.899Z,19.57
2017-09-01T07:56:48.931Z,16.93
2017-09-01T07:59:14.928Z,19.10
2017-09-01T08:01:41.941Z,18.30
2017-09-01T08:04:20.437Z,16.77
2017-09-01T08:06:47.268Z,17.40
2017-09-01T08:09:14.092Z,16.73
2017-09-01T08:11:40.357Z,15.67
2017-09-01T08:14:06.392Z,15.63
2017-09-01T08:16:32.707Z,20.03
2017-09-01T08:19:01.375Z,16.83
2017-09-01T08:21:27.516Z,20.67
2017-09-01T08:23:55.376Z,18.00
2017-09-01T08:26:23.870Z,17.27
2017-09-01T08:28:52.188Z,17.93
2017-09-01T08:31:19.216Z,16.00
2017-09-01T08:33:47.118Z,17.40
2017-09-01T08:36:17.628Z,17.83
2017-09-01T08:38:44.287Z,17.50
2017-09-01T08:41:10.979Z,16.93
2017-09-01T08:43:37.458Z,15.87
2017-09-01T08:46:03.601Z,16.90
2017-09-01T08:48:33.831Z,16.00
2017-09-01T08:51:01.405Z,15.90
2017-09-01T08:53:27.525Z,15.63
2017-09-01T08:55:54.486Z,15.10
2017-09-01T08:58:23.643Z,16.90
2017-09-01T09:00:49.756Z,15.80
2017-09-01T09:03:15.910Z,15.40
2017-09-01T09:05:41.955Z,15.83
2017-09-01T09:08:09.313Z,14.20
2017-09-01T09:10:38.559Z,14.97
2017-09-01T09:13:05.752Z,14.90
2017-09-01T09:15:34.274Z,13.13
2017-09-01T09:18:01.934Z,15.60
2017-09-01T09:20:31.233Z,16.13
2017-09-01T09:22:58.851Z,15.80
2017-09-01T09:25:25.173Z,17.10
2017-09-01T09:27:53.352Z,15.87
2017-09-01T09:30:19.623Z,13.33
2017-09-01T09:32:46.772Z,13.07
2017-09-01T09:35:12.955Z,14.63
2017-09-01T09:37:39.695Z,16.47
2017-09-01T09:40:06.665Z,12.90
2017-09-01T09:42:33.747Z,14.37
2017-09-01T09:44:59.826Z,13.00
2017-09-01T09:47:25.946Z,12.73
2017-09-01T09:49:53.224Z,13.13
2017-09-01T09:52:19.464Z,11.57
2017-09-01T09:54:45.668Z,12.50
2017-09-01T09:57:11.863Z,15.70
2017-09-01T09:59:37.875Z,11.17
2017-09-01T10:02:03.927Z,11.90
2017-09-01T10:04:30.926Z,12.77
2017-09-01T10:06:57.439Z,14.60
2017-09-01T10:09:24.793Z,12.13
2017-09-01T10:11:50.868Z,13.50
2017-09-01T10:14:16.913Z,11.20
2017-09-01T10:16:43.006Z,9.87
2017-09-01T10:19:10.059Z,9.30
2017-09-01T10:21:37.033Z,11.40
2017-09-01T10:24:06.254Z,9.53
2017-09-01T10:26:32.449Z,9.53
2017-09-01T10:28:58.663Z,10.50
2017-09-01T10:31:24.688Z,10.40
2017-09-01T10:33:52.257Z,8.90
2017-09-01T10:36:19.520Z,10.73
2017-09-01T10:38:47.059Z,6.50
2017-09-01T10:41:13.069Z,8.37
2017-09-01T10:43:39.265Z,6.70
2017-09-01T10:46:05.368Z,7.27
2017-09-01T10:48:43.805Z,10.87
2017-09-01T10:51:22.611Z,7.30
2017-09-01T10:54:04.429Z,7.47
2017-09-01T10:56:42.796Z,8.03
2017-09-01T10:59:10.425Z,6.70
2017-09-01T11:01:37.086Z,8.80
2017-09-01T11:04:05.089Z,7.73
2017-09-01T11:06:32.823Z,6.27
2017-09-01T11:08:59.153Z,6.27
2017-09-01T11:11:25.470Z,10.70
2017-09-01T11:13:51.869Z,7.63
2017-09-01T11:16:18.032Z,8.07
2017-09-01T11:18:50.552Z,7.80
2017-09-01T11:24:29.922Z,10.37
2017-09-01T11:26:56.798Z,8.27
2017-09-01T11:29:23.376Z,7.40
2017-09-01T11:31:50.732Z,6.90
2017-09-01T11:34:17.750Z,7.90
2017-09-01T11:36:43.840Z,7.47
2017-09-01T11:39:11.007Z,7.63
2017-09-01T11:41:38.959Z,7.17
2017-09-01T11:44:05.352Z,10.30
2017-09-01T11:46:33.825Z,7.37
2017-09-01T11:49:00.446Z,7.73
2017-09-01T11:51:30.771Z,8.30
2017-09-01T11:53:58.052Z,9.13
2017-09-01T11:56:25.283Z,10.20
2017-09-01T11:58:51.439Z,9.23
2017-09-01T12:01:19.765Z,9.63
2017-09-01T12:03:47.311Z,7.80
2017-09-01T12:06:13.852Z,7.23
2017-09-01T12:08:41.075Z,7.70
2017-09-01T12:11:08.693Z,6.57
2017-09-01T12:13:35.029Z,7.23
2017-09-01T12:16:01.703Z,5.80
2017-09-01T12:18:28.660Z,5.87
2017-09-01T12:20:56.055Z,7.53
2017-09-01T12:23:24.372Z,7.73
2017-09-01T12:25:54.592Z,6.30
2017-09-01T12:28:21.410Z,7.70
2017-09-01T12:30:47.797Z,7.30
2017-09-01T12:33:16.609Z,9.40
2017-09-01T12:35:44.499Z,7.30
2017-09-01T12:38:10.769Z,7.00
2017-09-01T12:40:38.898Z,8.83
2017-09-01T12:43:06.571Z,7.80
2017-09-01T12:45:34.625Z,7.97
2017-09-01T12:48:01.009Z,7.43
2017-09-01T12:50:27.890Z,7.43
2017-09-01T12:52:56.596Z,7.63
2017-09-01T12:55:22.677Z,8.13
2017-09-01T12:57:49.486Z,6.03
2017-09-01T13:00:16.101Z,6.23
2017-09-01T13:02:43.259Z,8.03
2017-09-01T13:05:09.395Z,6.40
2017-09-01T13:07:36.415Z,5.17
2017-09-01T13:10:04.429Z,6.07
2017-09-01T13:12:32.689Z,5.33
2017-09-01T13:14:59.958Z,4.40
2017-09-01T13:17:31.252Z,7.10
2017-09-01T13:19:59.275Z,5.63
2017-09-01T13:22:28.612Z,6.00
2017-09-01T13:24:55.603Z,7.57
2017-09-01T13:27:22.619Z,6.10
2017-09-01T13:32:28.644Z,6.40
2017-09-01T13:34:55.482Z,5.40
2017-09-01T13:37:21.765Z,6.07
2017-09-01T13:39:49.932Z,5.50
2017-09-01T13:42:17.232Z,5.47
2017-09-01T13:44:46.487Z,5.47
2017-09-01T13:47:13.104Z,6.13
2017-09-01T13:49:39.101Z,5.13
2017-09-01T13:52:05.535Z,6.13
2017-09-01T13:54:31.626Z,9.73
2017-09-01T13:56:58.768Z,6.00
2017-09-01T13:59:25.076Z,5.77
2017-09-01T14:01:51.347Z,5.30
2017-09-01T14:04:18.227Z,5.97
2017-09-01T14:06:45.486Z,4.93
2017-09-01T14:09:11.796Z,6.10
2017-09-01T14:11:39.394Z,5.43
2017-09-01T14:14:07.509Z,4.90
2017-09-01T14:16:33.834Z,4.53
2017-09-01T14:19:03.387Z,5.03
2017-09-01T14:21:29.614Z,8.10
2017-09-01T14:23:58.250Z,4.67
2017-09-01T14:26:25.088Z,5.70
2017-09-01T14:28:52.116Z,4.37
2017-09-01T14:31:18.686Z,5.17
2017-09-01T14:33:45.976Z,4.73
2017-09-01T14:36:12.909Z,5.33
2017-09-01T14:38:39.194Z,4.80
2017-09-01T14:41:06.279Z,4.40
2017-09-01T14:43:33.288Z,4.23
2017-09-01T14:46:12.987Z,4.70
2017-09-01T14:48:39.920Z,4.40
2017-09-01T14:51:06.204Z,4.63
2017-09-01T14:53:34.275Z,5.03
2017-09-01T14:56:00.596Z,3.90
2017-09-01T14:58:26.843Z,5.77
2017-09-01T15:00:53.290Z,4.67
2017-09-01T15:03:20.969Z,4.67
2017-09-01T15:05:48.377Z,3.40
2017-09-01T15:08:16.838Z,4.03
2017-09-01T15:10:44.037Z,4.43
2017-09-01T15:13:13.535Z,5.30
2017-09-01T15:15:41.967Z,4.57
2017-09-01T15:18:08.198Z,3.70
2017-09-01T15:20:34.422Z,5.00
2017-09-01T15:23:02.170Z,5.03
2017-09-01T15:25:30.122Z,4.43
2017-09-01T15:27:57.333Z,5.30
2017-09-01T15:30:24.590Z,4.43
2017-09-01T15:32:51.983Z,4.67
2017-09-01T15:35:21.093Z,5.37
2017-09-01T15:37:48.927Z,4.87
2017-09-01T15:40:15.195Z,4.20
2017-09-01T15:42:41.411Z,4.53
2017-09-01T15:45:08.984Z,3.53
2017-09-01T15:47:37.243Z,4.53
2017-09-01T15:50:04.424Z,6.57
2017-09-01T15:52:31.032Z,6.47
2017-09-01T15:54:57.290Z,5.57
2017-09-01T15:57:25.110Z,3.90
2017-09-01T15:59:51.258Z,4.30
2017-09-01T16:02:17.662Z,4.70
2017-09-01T16:04:44.821Z,3.50
2017-09-01T16:07:11.086Z,4.37
2017-09-01T16:09:38.664Z,3.57
2017-09-01T16:12:05.192Z,5.17
2017-09-01T16:14:32.771Z,3.83
2017-09-01T16:16:59.315Z,5.40
2017-09-01T16:19:26.767Z,3.97
2017-09-01T16:21:54.920Z,7.27
2017-09-01T16:24:24.252Z,4.00
2017-09-01T16:26:51.472Z,4.30
2017-09-01T16:29:18.335Z,5.30
2017-09-01T16:31:44.662Z,4.50
2017-09-01T16:34:15.139Z,6.77
2017-09-01T16:36:41.336Z,14.20
2017-09-01T16:39:09.664Z,6.17
2017-09-01T16:41:35.887Z,7.43
2017-09-01T16:44:05.303Z,5.10
2017-09-01T16:46:31.708Z,4.60
2017-09-01T16:48:57.713Z,4.70
2017-09-01T16:51:24.160Z,4.30
2017-09-01T16:53:50.401Z,9.43
2017-09-01T16:56:16.594Z,6.83
2017-09-01T16:58:43.843Z,7.80
2017-09-01T17:01:09.958Z,5.57
2017-09-01T17:03:36.127Z,7.57
2017-09-01T17:06:02.188Z,5.10
2017-09-01T17:08:28.446Z,5.00
2017-09-01T17:10:54.642Z,4.83
2017-09-01T17:13:21.115Z,6.87
2017-09-01T17:15:47.238Z,5.33
2017-09-01T17:18:13.340Z,4.50
2017-09-01T17:20:39.503Z,4.60
2017-09-01T17:23:05.625Z,4.90
2017-09-01T17:25:31.819Z,4.70
2017-09-01T17:27:58.053Z,4.07
2017-09-01T17:30:24.600Z,5.00
2017-09-01T17:32:50.816Z,3.63
2017-09-01T17:35:18.050Z,4.70
2017-09-01T17:37:44.634Z,6.00
2017-09-01T17:40:10.960Z,6.70
2017-09-01T17:42:39.005Z,8.17
2017-09-01T17:45:06.909Z,6.13
2017-09-01T17:47:33.260Z,6.40
2017-09-01T17:49:59.805Z,5.67
2017-09-01T17:52:26.076Z,6.40
2017-09-01T17:54:52.524Z,6.97
2017-09-01T17:57:20.420Z,6.40
2017-09-01T17:59:48.297Z,5.70
2017-09-01T18:02:23.623Z,5.10
2017-09-01T18:04:55.700Z,5.10
2017-09-01T18:07:24.940Z,5.50
2017-09-01T18:09:58.904Z,4.60
2017-09-01T18:12:28.184Z,7.83
2017-09-01T18:14:56.132Z,5.60
2017-09-01T18:17:22.301Z,4.77
2017-09-01T18:19:49.700Z,4.67
2017-09-01T18:22:22.702Z,6.23
2017-09-01T18:24:51.445Z,6.40
2017-09-01T18:27:17.876Z,6.73
2017-09-01T18:29:45.148Z,7.57
2017-09-01T18:32:12.559Z,5.80
2017-09-01T18:34:39.892Z,6.47
2017-09-01T18:37:06.204Z,6.40
2017-09-01T18:39:33.279Z,9.00
2017-09-01T18:42:00.693Z,6.50
2017-09-01T18:44:28.131Z,6.23
2017-09-01T18:46:54.212Z,8.27
2017-09-01T18:49:21.487Z,6.10
2017-09-01T18:51:49.341Z,7.20
2017-09-01T18:54:19.774Z,7.50
2017-09-01T18:56:46.571Z,10.10
2017-09-01T18:59:12.580Z,6.00
2017-09-01T19:01:41.239Z,6.70
2017-09-01T19:04:07.960Z,6.17
2017-09-01T19:06:38.767Z,5.70
2017-09-01T19:09:05.432Z,5.77
2017-09-01T19:11:32.741Z,6.80
2017-09-01T19:13:59.511Z,6.77
2017-09-01T19:18:58.846Z,5.73
2017-09-01T19:21:26.967Z,6.20
2017-09-01T19:23:54.412Z,5.40
2017-09-01T19:26:21.976Z,5.93
2017-09-01T19:28:47.987Z,5.63
2017-09-01T19:31:16.130Z,5.90
2017-09-01T19:33:46.557Z,6.17
2017-09-01T19:36:14.192Z,6.43
2017-09-01T19:38:41.414Z,5.60
2017-09-01T19:41:09.418Z,6.10
2017-09-01T19:43:41.072Z,5.80
2017-09-01T19:46:10.005Z,7.50
2017-09-01T19:48:37.271Z,6.87
2017-09-01T19:51:04.973Z,6.40
2017-09-01T19:53:31.191Z,6.17
2017-09-01T19:55:58.250Z,7.10
2017-09-01T19:58:25.341Z,7.10
2017-09-01T20:00:51.479Z,6.80
2017-09-01T20:03:17.825Z,11.57
2017-09-01T20:05:43.817Z,7.23
2017-09-01T20:08:09.855Z,6.30
2017-09-01T20:10:40.001Z,6.13
2017-09-01T20:13:06.088Z,6.13
2017-09-01T20:15:32.059Z,6.10
2017-09-01T20:17:58.307Z,6.83
2017-09-01T20:20:24.742Z,6.60
2017-09-01T20:22:51.747Z,7.30
2017-09-01T20:25:20.471Z,5.83
2017-09-01T20:27:48.999Z,6.30
2017-09-01T20:30:19.091Z,5.90
2017-09-01T20:32:45.185Z,6.07
2017-09-01T20:35:11.120Z,7.10
2017-09-01T20:37:39.437Z,10.23
2017-09-01T20:40:05.690Z,6.00
2017-09-01T20:42:31.821Z,7.30
2017-09-01T20:44:58.017Z,6.17
2017-09-01T20:47:25.053Z,7.57
2017-09-01T20:49:52.421Z,6.70
2017-09-01T20:52:19.514Z,6.47
2017-09-01T20:54:45.611Z,7.00
2017-09-01T20:57:12.441Z,6.77
2017-09-01T21:02:14.863Z,8.03
2017-09-01T21:04:47.965Z,7.63
2017-09-01T21:07:13.964Z,7.63
2017-09-01T21:09:40.543Z,7.07
2017-09-01T21:12:11.792Z,6.50
2017-09-01T21:14:43.269Z,6.30
2017-09-01T21:17:10.965Z,7.47
2017-09-01T21:19:38.048Z,6.23
2017-09-01T21:22:04.267Z,7.47
2017-09-01T21:24:31.269Z,6.10
2017-09-01T21:26:57.471Z,5.70
2017-09-01T21:29:28.195Z,6.03
2017-09-01T21:31:57.133Z,6.00
2017-09-01T21:34:24.081Z,5.43
2017-09-01T21:36:50.643Z,9.03
2017-09-01T21:39:17.144Z,6.17
2017-09-01T21:41:44.472Z,5.50
2017-09-01T21:44:10.718Z,6.63
2017-09-01T21:46:38.236Z,5.67
2017-09-01T21:49:04.312Z,6.00
2017-09-01T21:51:30.555Z,5.67
2017-09-01T21:53:57.535Z,6.43
2017-09-01T21:56:24.740Z,5.03
2017-09-01T21:58:51.271Z,4.83
2017-09-01T22:01:29.770Z,5.00
2017-09-01T22:03:55.919Z,4.53
2017-09-01T22:06:22.355Z,4.67
2017-09-01T22:08:48.677Z,5.47
2017-09-01T22:11:14.894Z,5.37
2017-09-01T22:13:41.676Z,4.80
2017-09-01T22:16:08.667Z,4.93
2017-09-01T22:18:35.367Z,6.00
2017-09-01T22:21:02.311Z,4.33
2017-09-01T22:23:28.332Z,5.03
2017-09-01T22:25:59.037Z,4.30
2017-09-01T22:28:25.305Z,5.53
2017-09-01T22:30:51.414Z,4.70
2017-09-01T22:33:19.617Z,5.13
2017-09-01T22:35:46.443Z,4.67
2017-09-01T22:40:46.977Z,5.23
2017-09-01T22:43:13.247Z,4.70
2017-09-01T22:45:39.352Z,4.80
2017-09-01T22:50:45.072Z,4.40
2017-09-01T22:53:15.739Z,4.43
2017-09-01T22:55:41.861Z,4.27
2017-09-01T22:58:08.442Z,4.67
2017-09-01T23:00:39.319Z,5.83
2017-09-01T23:03:07.296Z,6.40
2017-09-01T23:05:34.823Z,5.97
2017-09-01T23:08:03.357Z,4.43
2017-09-01T23:10:32.386Z,8.53
2017-09-01T23:13:01.089Z,4.67
2017-09-01T23:15:29.305Z,4.40
2017-09-01T23:17:57.823Z,4.70
2017-09-01T23:20:26.404Z,5.47
2017-09-01T23:22:55.672Z,4.80
2017-09-01T23:25:22.878Z,5.50
2017-09-01T23:27:49.947Z,5.63
2017-09-01T23:30:17.507Z,6.47
2017-09-01T23:32:44.061Z,5.20
2017-09-01T23:35:10.592Z,5.20
2017-09-01T23:37:38.336Z,5.50
2017-09-01T23:40:05.763Z,6.00
2017-09-01T23:42:33.930Z,5.67
2017-09-01T23:45:01.631Z,6.00
2017-09-01T23:47:28.985Z,6.77
2017-09-01T23:49:58.949Z,5.90
2017-09-01T23:52:27.087Z,5.63
2017-09-01T23:54:54.483Z,5.37
2017-09-01T23:57:22.003Z,5.73
2017-09-01T23:59:49.909Z,6.60
